createdAt,value
2023-10-10T00:01:07.292Z,13.39
2023-10-10T00:03:41.153Z,13.34
2023-10-10T00:06:09.915Z,13.33
2023-10-10T00:08:42.212Z,13.29
2023-10-10T00:11:11.596Z,13.26
2023-10-10T00:13:44.003Z,13.24
2023-10-10T00:16:13.115Z,13.23
2023-10-10T00:18:44.708Z,13.18
2023-10-10T00:21:18.742Z,13.12
2023-10-10T00:23:48.089Z,13.04
2023-10-10T00:26:16.500Z,13.02
2023-10-10T00:28:55.168Z,12.99
2023-10-10T00:31:23.615Z,13.00
2023-10-10T00:33:52.671Z,12.97
2023-10-10T00:36:29.286Z,12.98
2023-10-10T00:38:59.551Z,12.97
2023-10-10T00:41:27.980Z,12.95
2023-10-10T00:43:57.069Z,12.93
2023-10-10T00:46:30.215Z,12.94
2023-10-10T00:49:01.619Z,12.93
2023-10-10T00:51:34.763Z,12.93
2023-10-10T00:54:18.362Z,12.93
2023-10-10T00:56:46.017Z,12.89
2023-10-10T00:59:17.667Z,12.84
2023-10-10T01:01:46.787Z,12.81
2023-10-10T01:04:14.596Z,12.80
2023-10-10T01:06:42.205Z,12.75
2023-10-10T01:09:21.867Z,12.73
2023-10-10T01:11:50.891Z,12.75
2023-10-10T01:14:22.508Z,12.69
2023-10-10T01:16:55.809Z,12.67
2023-10-10T01:19:24.039Z,12.64
2023-10-10T01:21:58.858Z,12.59
2023-10-10T01:24:26.929Z,12.59
2023-10-10T01:27:04.414Z,12.60
2023-10-10T01:29:41.740Z,12.57
2023-10-10T01:32:11.904Z,12.54
2023-10-10T01:34:44.959Z,12.51
2023-10-10T01:37:21.635Z,12.49
2023-10-10T01:40:07.095Z,12.47
2023-10-10T01:42:38.546Z,12.44
2023-10-10T01:45:10.398Z,12.35
2023-10-10T01:47:40.824Z,12.33
2023-10-10T01:50:13.715Z,12.31
2023-10-10T01:52:47.078Z,12.30
2023-10-10T01:55:17.645Z,12.19
2023-10-10T01:57:45.388Z,12.18
2023-10-10T02:00:21.643Z,12.17
2023-10-10T02:02:51.045Z,12.13
2023-10-10T02:05:31.692Z,12.13
2023-10-10T02:08:01.854Z,12.12
2023-10-10T02:10:31.195Z,12.12
2023-10-10T02:13:01.249Z,12.06
2023-10-10T02:15:33.380Z,12.08
2023-10-10T02:18:05.944Z,12.07
2023-10-10T02:20:50.796Z,12.06
2023-10-10T02:23:32.389Z,12.01
2023-10-10T02:26:04.659Z,12.00
2023-10-10T02:28:48.521Z,11.99
2023-10-10T02:31:17.621Z,11.95
2023-10-10T02:34:03.333Z,11.92
2023-10-10T02:36:35.921Z,11.91
2023-10-10T02:39:20.256Z,11.89
2023-10-10T02:41:52.934Z,11.86
2023-10-10T02:44:47.418Z,11.88
2023-10-10T02:47:15.669Z,11.84
2023-10-10T02:49:43.709Z,11.77
2023-10-10T02:52:15.418Z,11.74
2023-10-10T02:54:55.085Z,11.69
2023-10-10T02:57:35.369Z,11.67
2023-10-10T03:02:59.764Z,11.62
2023-10-10T03:05:40.361Z,11.63
2023-10-10T03:08:15.860Z,11.63
2023-10-10T03:10:47.831Z,11.64
2023-10-10T03:13:29.413Z,11.59
2023-10-10T03:16:13.657Z,11.57
2023-10-10T03:19:03.536Z,11.55
2023-10-10T03:21:46.076Z,11.53
2023-10-10T03:24:16.638Z,11.50
2023-10-10T03:27:01.112Z,11.46
2023-10-10T03:29:38.592Z,11.45
2023-10-10T03:32:32.544Z,11.48
2023-10-10T03:35:07.477Z,11.47
2023-10-10T03:37:42.592Z,11.45
2023-10-10T03:40:22.867Z,11.46
2023-10-10T03:43:07.986Z,11.48
2023-10-10T03:45:53.587Z,11.47
2023-10-10T03:48:41.224Z,11.48
2023-10-10T03:51:28.753Z,11.45
2023-10-10T03:54:15.566Z,11.46
2023-10-10T03:57:01.042Z,11.42
2023-10-10T03:59:55.920Z,11.43
2023-10-10T04:02:41.682Z,11.40
2023-10-10T04:05:28.351Z,11.38
2023-10-10T04:08:15.146Z,11.36
2023-10-10T04:11:05.459Z,11.36
2023-10-10T04:13:50.604Z,11.30
2023-10-10T04:16:36.223Z,11.29
2023-10-10T04:19:21.394Z,11.28
2023-10-10T04:22:06.876Z,11.24
2023-10-10T04:24:53.511Z,11.26
2023-10-10T04:27:38.865Z,11.25
2023-10-10T04:30:25.234Z,11.22
2023-10-10T04:33:10.767Z,11.21
2023-10-10T04:36:10.435Z,11.20
2023-10-10T04:38:55.599Z,11.17
2023-10-10T04:41:42.226Z,11.14
2023-10-10T04:44:27.567Z,11.13
2023-10-10T04:47:12.881Z,11.15
2023-10-10T04:49:58.217Z,11.10
2023-10-10T04:52:43.685Z,11.01
2023-10-10T04:55:28.862Z,10.91
2023-10-10T04:58:15.364Z,10.87
2023-10-10T05:01:00.814Z,10.90
2023-10-10T05:03:46.257Z,10.93
2023-10-10T05:06:32.995Z,10.92
2023-10-10T05:09:19.341Z,10.88
2023-10-10T05:12:04.773Z,10.84
2023-10-10T05:14:51.410Z,10.85
2023-10-10T05:17:36.834Z,10.86
2023-10-10T05:20:22.590Z,10.83
2023-10-10T05:23:09.778Z,10.82
2023-10-10T05:25:38.706Z,10.83
2023-10-10T05:28:06.806Z,10.83
2023-10-10T05:30:44.087Z,10.88
2023-10-10T05:33:13.881Z,10.82
2023-10-10T05:35:44.817Z,10.87
2023-10-10T05:38:12.577Z,10.85
2023-10-10T05:40:40.372Z,10.80
2023-10-10T05:43:10.823Z,10.77
2023-10-10T05:45:40.333Z,10.74
2023-10-10T05:48:08.052Z,10.81
2023-10-10T05:50:35.798Z,10.83
2023-10-10T05:53:04.960Z,10.93
2023-10-10T05:55:34.806Z,10.99
2023-10-10T05:58:03.452Z,10.99
2023-10-10T06:00:37.338Z,10.98
2023-10-10T06:03:07.418Z,10.97
2023-10-10T06:05:35.274Z,10.97
2023-10-10T06:08:03.587Z,10.96
2023-10-10T06:10:33.929Z,10.98
2023-10-10T06:13:04.928Z,10.97
2023-10-10T06:15:34.798Z,11.00
2023-10-10T06:18:12.925Z,11.02
2023-10-10T06:20:58.220Z,11.07
2023-10-10T06:23:34.004Z,11.15
2023-10-10T06:26:02.091Z,11.13
2023-10-10T06:28:36.130Z,11.21
2023-10-10T06:31:11.212Z,11.21
2023-10-10T06:33:42.020Z,11.24
2023-10-10T06:36:30.722Z,11.29
2023-10-10T06:39:16.107Z,11.27
2023-10-10T06:41:48.534Z,11.29
2023-10-10T06:44:19.448Z,11.23
2023-10-10T06:46:49.549Z,11.31
2023-10-10T06:49:19.404Z,11.40
2023-10-10T06:51:50.667Z,11.47
2023-10-10T06:54:28.479Z,11.62
2023-10-10T06:57:05.871Z,11.77
2023-10-10T06:59:36.577Z,11.91
2023-10-10T07:02:20.951Z,12.02
2023-10-10T07:04:53.720Z,12.14
2023-10-10T07:07:27.475Z,12.27
2023-10-10T07:09:59.273Z,12.40
2023-10-10T07:12:29.864Z,12.41
2023-10-10T07:14:58.316Z,12.52
2023-10-10T07:17:29.108Z,12.64
2023-10-10T07:20:14.253Z,12.75
2023-10-10T07:22:45.002Z,12.89
2023-10-10T07:25:19.593Z,13.00
2023-10-10T07:27:47.343Z,13.05
2023-10-10T07:30:18.588Z,13.12
2023-10-10T07:32:49.436Z,13.28
2023-10-10T07:35:17.709Z,13.39
2023-10-10T07:37:47.590Z,13.53
2023-10-10T07:40:21.304Z,13.61
2023-10-10T07:42:52.174Z,13.74
2023-10-10T07:45:28.839Z,13.83
2023-10-10T07:48:14.437Z,13.93
2023-10-10T07:50:49.733Z,14.04
2023-10-10T07:53:19.514Z,14.16
2023-10-10T07:55:55.015Z,14.34
2023-10-10T07:58:33.879Z,14.49
2023-10-10T08:01:11.178Z,14.58
2023-10-10T08:03:45.188Z,14.68
2023-10-10T08:06:17.903Z,14.82
2023-10-10T08:08:49.906Z,14.98
2023-10-10T08:11:28.547Z,15.12
2023-10-10T08:13:56.666Z,15.31
2023-10-10T08:16:27.364Z,15.45
2023-10-10T08:18:55.047Z,15.63
2023-10-10T08:21:25.824Z,15.78
2023-10-10T08:23:59.241Z,16.00
2023-10-10T08:26:30.835Z,16.17
2023-10-10T08:28:58.587Z,16.38
2023-10-10T08:31:26.268Z,16.56
2023-10-10T08:33:53.889Z,16.74
2023-10-10T08:36:25.337Z,16.90
2023-10-10T08:38:55.374Z,17.09
2023-10-10T08:41:26.330Z,17.28
2023-10-10T08:43:59.079Z,17.45
2023-10-10T08:46:30.991Z,17.62
2023-10-10T08:49:00.459Z,17.79
2023-10-10T08:54:04.133Z,18.15
2023-10-10T08:56:38.647Z,18.33
2023-10-10T08:59:07.313Z,18.46
2023-10-10T09:01:37.114Z,18.64
2023-10-10T09:04:06.479Z,18.78
2023-10-10T09:06:45.555Z,18.95
2023-10-10T09:09:32.293Z,19.12
2023-10-10T09:12:03.616Z,19.22
2023-10-10T09:14:40.628Z,19.48
2023-10-10T09:17:10.024Z,19.63
2023-10-10T09:19:48.716Z,19.73
2023-10-10T09:22:29.959Z,19.94
2023-10-10T09:25:00.831Z,20.05
2023-10-10T09:27:29.981Z,20.13
2023-10-10T09:29:59.041Z,20.27
2023-10-10T09:32:37.389Z,20.51
2023-10-10T09:35:07.952Z,20.73
2023-10-10T09:37:39.706Z,20.89
2023-10-10T09:40:17.749Z,21.09
2023-10-10T09:42:54.973Z,20.83
2023-10-10T09:45:37.101Z,20.95
2023-10-10T09:48:08.050Z,20.95
2023-10-10T09:50:46.867Z,21.15
2023-10-10T09:53:24.297Z,21.26
2023-10-10T09:56:02.546Z,21.36
2023-10-10T09:58:31.210Z,21.42
2023-10-10T10:01:15.509Z,21.35
2023-10-10T10:03:56.248Z,21.51
2023-10-10T10:06:49.042Z,21.43
2023-10-10T10:09:39.501Z,21.65
2023-10-10T10:12:31.970Z,21.71
2023-10-10T10:15:16.603Z,21.77
2023-10-10T10:17:56.322Z,22.09
2023-10-10T10:20:35.156Z,22.35
2023-10-10T10:23:03.000Z,22.20
2023-10-10T10:25:34.685Z,22.26
2023-10-10T10:28:12.606Z,22.35
2023-10-10T10:30:51.653Z,22.48
2023-10-10T10:33:23.897Z,22.47
2023-10-10T10:36:15.676Z,22.78
2023-10-10T10:39:07.959Z,22.96
2023-10-10T10:41:43.768Z,22.69
2023-10-10T10:44:29.641Z,22.71
2023-10-10T10:46:58.880Z,22.60
2023-10-10T10:49:29.491Z,22.89
2023-10-10T10:52:11.177Z,22.88
2023-10-10T10:54:39.239Z,22.98
2023-10-10T10:57:07.221Z,23.21
2023-10-10T10:59:40.086Z,23.60
2023-10-10T11:02:16.690Z,23.70
2023-10-10T11:04:51.257Z,23.61
2023-10-10T11:07:30.981Z,23.02
2023-10-10T11:10:08.760Z,23.18
2023-10-10T11:12:38.296Z,23.13
2023-10-10T11:15:11.951Z,23.46
2023-10-10T11:17:46.279Z,23.51
2023-10-10T11:20:30.437Z,23.21
2023-10-10T11:23:13.174Z,23.09
2023-10-10T11:25:47.723Z,23.42
2023-10-10T11:28:23.166Z,23.51
2023-10-10T11:30:53.861Z,23.60
2023-10-10T11:33:49.880Z,24.03
2023-10-10T11:36:30.318Z,24.19
2023-10-10T11:39:16.706Z,24.31
2023-10-10T11:41:46.508Z,24.71
2023-10-10T11:44:20.810Z,24.76
2023-10-10T11:46:50.940Z,24.71
2023-10-10T11:49:18.672Z,24.62
2023-10-10T11:51:47.860Z,24.75
2023-10-10T11:54:15.791Z,25.17
2023-10-10T11:56:47.333Z,25.39
2023-10-10T11:59:18.262Z,24.87
2023-10-10T12:01:53.074Z,24.80
2023-10-10T12:04:39.015Z,24.92
2023-10-10T12:07:07.430Z,24.99
2023-10-10T12:09:35.616Z,25.11
2023-10-10T12:12:04.778Z,25.47
2023-10-10T12:14:33.216Z,26.11
2023-10-10T12:17:06.615Z,26.34
2023-10-10T12:19:44.578Z,26.18
2023-10-10T12:22:13.340Z,26.06
2023-10-10T12:24:41.639Z,26.06
2023-10-10T12:27:10.152Z,25.81
2023-10-10T12:29:40.921Z,25.83
2023-10-10T12:32:17.296Z,26.01
2023-10-10T12:34:47.891Z,26.35
2023-10-10T12:37:17.378Z,26.47
2023-10-10T12:39:45.570Z,27.13
2023-10-10T12:42:13.709Z,26.79
2023-10-10T12:44:41.387Z,26.67
2023-10-10T12:47:09.373Z,26.34
2023-10-10T12:49:45.259Z,26.49
2023-10-10T12:52:14.352Z,26.25
2023-10-10T12:54:43.557Z,26.36
2023-10-10T12:57:15.611Z,25.55
2023-10-10T12:59:47.440Z,25.76
2023-10-10T13:02:17.665Z,25.80
2023-10-10T13:04:48.541Z,25.36
2023-10-10T13:07:19.198Z,25.54
2023-10-10T13:09:47.839Z,25.94
2023-10-10T13:12:28.832Z,25.92
2023-10-10T13:15:17.509Z,26.21
2023-10-10T13:17:54.452Z,26.72
2023-10-10T13:20:23.684Z,27.56
2023-10-10T13:22:52.868Z,28.04
2023-10-10T13:25:23.199Z,27.93
2023-10-10T13:27:53.259Z,27.87
2023-10-10T13:30:20.989Z,27.96
2023-10-10T13:32:48.658Z,27.92
2023-10-10T13:35:16.520Z,28.31
2023-10-10T13:37:44.948Z,28.20
2023-10-10T13:40:22.652Z,27.70
2023-10-10T13:42:50.665Z,27.52
2023-10-10T13:45:23.373Z,27.80
2023-10-10T13:47:51.368Z,28.33
2023-10-10T13:50:32.606Z,28.92
2023-10-10T13:53:01.445Z,29.85
2023-10-10T13:55:35.173Z,30.72
2023-10-10T13:58:02.840Z,30.75
2023-10-10T14:00:34.442Z,31.34
2023-10-10T14:03:05.203Z,31.79
2023-10-10T14:05:35.668Z,32.47
2023-10-10T14:08:07.426Z,32.94
2023-10-10T14:10:42.954Z,31.77
2023-10-10T14:13:20.910Z,31.07
2023-10-10T14:15:57.258Z,31.25
2023-10-10T14:18:27.161Z,31.25
2023-10-10T14:20:55.423Z,31.49
2023-10-10T14:23:24.971Z,30.65
2023-10-10T14:26:04.347Z,30.83
2023-10-10T14:28:33.361Z,30.90
2023-10-10T14:31:01.264Z,30.73
2023-10-10T14:33:29.015Z,30.76
2023-10-10T14:35:56.915Z,31.07
2023-10-10T14:38:24.544Z,31.07
2023-10-10T14:40:52.165Z,31.24
2023-10-10T14:43:21.162Z,31.75
2023-10-10T14:45:50.126Z,32.03
2023-10-10T14:48:20.473Z,32.21
2023-10-10T14:50:53.638Z,31.28
2023-10-10T14:53:23.542Z,31.53
2023-10-10T14:55:52.738Z,30.99
2023-10-10T14:58:23.772Z,30.81
2023-10-10T15:00:53.868Z,30.14
2023-10-10T15:03:23.796Z,29.94
2023-10-10T15:05:52.188Z,29.55
2023-10-10T15:08:21.318Z,29.76
2023-10-10T15:10:52.505Z,29.78
2023-10-10T15:13:23.239Z,29.46
2023-10-10T15:15:50.852Z,29.17
2023-10-10T15:18:19.349Z,29.12
2023-10-10T15:20:49.873Z,28.91
2023-10-10T15:23:21.415Z,28.79
2023-10-10T15:25:54.737Z,28.58
2023-10-10T15:28:25.785Z,28.77
2023-10-10T15:30:53.500Z,28.79
2023-10-10T15:33:23.381Z,28.80
2023-10-10T15:35:53.599Z,28.90
2023-10-10T15:38:24.028Z,28.72
2023-10-10T15:40:53.283Z,28.75
2023-10-10T15:43:32.150Z,28.75
2023-10-10T15:46:08.026Z,28.45
2023-10-10T15:48:43.520Z,28.24
2023-10-10T15:51:15.773Z,28.28
2023-10-10T15:53:44.390Z,27.94
2023-10-10T15:56:16.876Z,27.91
2023-10-10T15:58:50.832Z,27.64
2023-10-10T16:01:28.943Z,27.36
2023-10-10T16:04:01.242Z,26.96
2023-10-10T16:06:31.089Z,26.19
2023-10-10T16:08:59.912Z,25.69
2023-10-10T16:11:32.677Z,25.44
2023-10-10T16:14:00.801Z,24.94
2023-10-10T16:16:31.158Z,24.86
2023-10-10T16:18:58.889Z,24.61
2023-10-10T16:21:27.270Z,24.18
2023-10-10T16:23:55.917Z,23.97
2023-10-10T16:26:24.065Z,23.71
2023-10-10T16:28:51.680Z,23.41
2023-10-10T16:31:21.373Z,23.29
2023-10-10T16:33:50.759Z,23.00
2023-10-10T16:36:19.145Z,22.75
2023-10-10T16:38:50.774Z,22.37
2023-10-10T16:41:19.752Z,22.05
2023-10-10T16:44:00.451Z,21.73
2023-10-10T16:46:32.248Z,21.41
2023-10-10T16:49:01.454Z,21.13
2023-10-10T16:51:32.859Z,20.86
2023-10-10T16:54:01.252Z,20.67
2023-10-10T16:56:28.934Z,20.30
2023-10-10T16:58:56.524Z,20.17
2023-10-10T17:01:24.201Z,19.93
2023-10-10T17:03:55.537Z,19.81
2023-10-10T17:06:26.357Z,19.54
2023-10-10T17:08:55.506Z,19.47
2023-10-10T17:11:24.382Z,19.34
2023-10-10T17:13:53.960Z,19.17
2023-10-10T17:16:29.531Z,19.01
2023-10-10T17:19:22.791Z,18.89
2023-10-10T17:21:48.305Z,18.77
2023-10-10T17:24:19.719Z,18.66
2023-10-10T17:26:47.426Z,18.54
2023-10-10T17:29:15.448Z,18.41
2023-10-10T17:31:43.846Z,18.30
2023-10-10T17:34:16.583Z,18.20
2023-10-10T17:36:44.753Z,18.15
2023-10-10T17:39:16.838Z,18.06
2023-10-10T17:41:48.769Z,17.97
2023-10-10T17:44:18.116Z,17.87
2023-10-10T17:46:47.714Z,17.80
2023-10-10T17:49:16.111Z,17.68
2023-10-10T17:51:45.735Z,17.59
2023-10-10T17:54:16.835Z,17.53
2023-10-10T17:56:45.786Z,17.47
2023-10-10T17:59:13.922Z,17.38
2023-10-10T18:01:42.878Z,17.30
2023-10-10T18:04:10.989Z,17.30
2023-10-10T18:06:38.779Z,17.28
2023-10-10T18:09:09.122Z,17.22
2023-10-10T18:11:39.165Z,17.18
2023-10-10T18:14:08.097Z,17.17
2023-10-10T18:16:36.659Z,17.15
2023-10-10T18:19:14.494Z,17.10
2023-10-10T18:21:42.968Z,17.08
2023-10-10T18:24:12.634Z,17.04
2023-10-10T18:26:41.851Z,16.97
2023-10-10T18:29:09.956Z,16.93
2023-10-10T18:31:39.396Z,16.87
2023-10-10T18:34:07.771Z,16.82
2023-10-10T18:36:38.178Z,16.80
2023-10-10T18:39:13.323Z,16.76
2023-10-10T18:41:43.634Z,16.70
2023-10-10T18:44:12.964Z,16.61
2023-10-10T18:46:44.194Z,16.57
2023-10-10T18:49:12.134Z,16.50
2023-10-10T18:51:39.733Z,16.43
2023-10-10T18:54:09.329Z,16.41
2023-10-10T18:56:39.085Z,16.34
2023-10-10T18:59:08.582Z,16.27
2023-10-10T19:01:38.799Z,16.25
2023-10-10T19:04:08.386Z,16.21
2023-10-10T19:06:39.834Z,16.15
2023-10-10T19:09:12.210Z,16.08
2023-10-10T19:11:40.034Z,16.02
2023-10-10T19:14:10.701Z,15.96
2023-10-10T19:16:38.651Z,15.88
2023-10-10T19:19:06.849Z,15.83
2023-10-10T19:21:34.566Z,15.79
2023-10-10T19:24:02.756Z,15.73
2023-10-10T19:26:30.867Z,15.74
2023-10-10T19:28:58.660Z,15.72
2023-10-10T19:31:27.948Z,15.64
2023-10-10T19:33:55.967Z,15.54
2023-10-10T19:36:23.695Z,15.51
2023-10-10T19:38:51.366Z,15.47
2023-10-10T19:41:19.760Z,15.45
2023-10-10T19:43:52.281Z,15.38
2023-10-10T19:46:21.390Z,15.38
2023-10-10T19:48:52.102Z,15.35
2023-10-10T19:51:21.067Z,15.29
2023-10-10T19:53:51.059Z,15.18
2023-10-10T19:56:19.438Z,15.18
2023-10-10T19:58:47.525Z,15.14
2023-10-10T20:01:16.953Z,15.08
2023-10-10T20:03:45.213Z,15.03
2023-10-10T20:06:21.075Z,14.98
2023-10-10T20:08:50.177Z,14.94
2023-10-10T20:11:18.023Z,14.91
2023-10-10T20:13:46.508Z,14.91
2023-10-10T20:16:15.604Z,14.86
2023-10-10T20:18:45.209Z,14.81
2023-10-10T20:21:13.712Z,14.79
2023-10-10T20:23:43.745Z,14.74
2023-10-10T20:26:15.917Z,14.66
2023-10-10T20:28:45.646Z,14.64
2023-10-10T20:31:14.257Z,14.60
2023-10-10T20:33:42.474Z,14.60
2023-10-10T20:36:14.432Z,14.54
2023-10-10T20:38:44.028Z,14.51
2023-10-10T20:41:13.028Z,14.41
2023-10-10T20:43:41.299Z,14.42
2023-10-10T20:46:09.416Z,14.36
2023-10-10T20:48:37.333Z,14.31
2023-10-10T20:51:05.424Z,14.27
2023-10-10T20:53:33.302Z,14.24
2023-10-10T20:56:03.671Z,14.23
2023-10-10T20:58:35.101Z,14.15
2023-10-10T21:01:03.637Z,14.13
2023-10-10T21:03:31.662Z,14.09
2023-10-10T21:05:59.475Z,14.05
2023-10-10T21:08:27.194Z,14.03
2023-10-10T21:10:55.017Z,14.00
2023-10-10T21:13:24.762Z,13.97
2023-10-10T21:15:53.090Z,13.97
2023-10-10T21:18:21.648Z,13.98
2023-10-10T21:21:00.809Z,13.96
2023-10-10T21:23:32.411Z,13.92
2023-10-10T21:26:00.180Z,13.92
2023-10-10T21:28:29.134Z,13.91
2023-10-10T21:30:56.809Z,13.92
2023-10-10T21:33:24.877Z,13.90
2023-10-10T21:35:52.866Z,13.88
2023-10-10T21:38:21.724Z,13.90
2023-10-10T21:40:50.452Z,13.88
2023-10-10T21:43:19.004Z,13.86
2023-10-10T21:45:48.032Z,13.86
2023-10-10T21:48:18.826Z,13.86
2023-10-10T21:50:46.758Z,13.86
2023-10-10T21:53:14.605Z,13.87
2023-10-10T21:55:42.541Z,13.84
2023-10-10T21:58:10.169Z,13.84
2023-10-10T22:00:57.751Z,13.89
2023-10-10T22:03:27.366Z,13.91
2023-10-10T22:05:56.213Z,13.91
2023-10-10T22:08:26.945Z,13.89
2023-10-10T22:10:55.359Z,13.88
2023-10-10T22:13:24.532Z,13.88
2023-10-10T22:15:52.846Z,13.86
2023-10-10T22:18:21.052Z,13.87
2023-10-10T22:20:53.136Z,13.82
2023-10-10T22:23:20.753Z,13.83
2023-10-10T22:25:48.385Z,13.78
2023-10-10T22:28:16.438Z,13.72
2023-10-10T22:30:44.692Z,13.70
2023-10-10T22:33:12.752Z,13.69
2023-10-10T22:35:40.989Z,13.69
2023-10-10T22:38:13.985Z,13.68
2023-10-10T22:40:41.738Z,13.63
2023-10-10T22:43:11.323Z,13.64
2023-10-10T22:45:39.658Z,13.60
2023-10-10T22:48:09.466Z,13.59
2023-10-10T22:50:39.647Z,13.57
2023-10-10T22:53:10.387Z,13.53
2023-10-10T22:55:42.469Z,13.50
2023-10-10T22:58:10.073Z,13.50
2023-10-10T23:00:38.570Z,13.45
2023-10-10T23:03:10.523Z,13.44
2023-10-10T23:05:39.989Z,13.42
2023-10-10T23:08:08.219Z,13.39
2023-10-10T23:10:37.730Z,13.41
2023-10-10T23:13:07.906Z,13.39
2023-10-10T23:15:37.975Z,13.38
2023-10-10T23:18:11.131Z,13.35
2023-10-10T23:20:41.752Z,13.36
2023-10-10T23:23:09.673Z,13.35
2023-10-10T23:25:37.493Z,13.28
2023-10-10T23:28:09.343Z,13.26
2023-10-10T23:30:39.933Z,13.25
2023-10-10T23:33:11.830Z,13.23
2023-10-10T23:35:40.338Z,13.25
2023-10-10T23:38:08.159Z,13.18
2023-10-10T23:40:42.776Z,13.17
2023-10-10T23:43:19.477Z,13.10
2023-10-10T23:45:49.881Z,13.05
2023-10-10T23:48:18.162Z,13.02
2023-10-10T23:50:47.068Z,13.00
2023-10-10T23:53:15.449Z,12.94
2023-10-10T23:55:47.576Z,12.89
2023-10-10T23:58:17.617Z,12.85
